sensor_id;sensor_type;location;lat;lon;timestamp;P1;durP1;ratioP1;P2;durP2;ratioP2
68854;SDS011;69984;-43.570;172.580;2024-03-22T00:02:21;8.73;;;1.73;;
68854;SDS011;69984;-43.570;172.580;2024-03-22T00:04:48;10.05;;;1.15;;
68854;SDS011;69984;-43.570;172.580;2024-03-22T00:07:15;13.15;;;3.10;;
68854;SDS011;69984;-43.570;172.580;2024-03-22T00:09:42;13.95;;;3.78;;
68854;SDS011;69984;-43.570;172.580;2024-03-22T00:12:09;23.55;;;5.45;;
68854;SDS011;69984;-43.570;172.580;2024-03-22T00:14:36;20.25;;;5.32;;
68854;SDS011;69984;-43.570;172.580;2024-03-22T00:17:03;18.55;;;4.82;;
68854;SDS011;69984;-43.570;172.580;2024-03-22T00:19:30;11.48;;;3.95;;
68854;SDS011;69984;-43.570;172.580;2024-03-22T00:21:57;13.02;;;5.05;;
68854;SDS011;69984;-43.570;172.580;2024-03-22T00:24:24;13.25;;;5.15;;
68854;SDS011;69984;-43.570;172.580;2024-03-22T00:26:51;31.67;;;11.88;;
68854;SDS011;69984;-43.570;172.580;2024-03-22T00:29:18;22.17;;;8.13;;
68854;SDS011;69984;-43.570;172.580;2024-03-22T00:31:45;15.70;;;5.80;;
68854;SDS011;69984;-43.570;172.580;2024-03-22T00:34:11;15.25;;;3.75;;
68854;SDS011;69984;-43.570;172.580;2024-03-22T00:36:38;11.60;;;2.08;;
68854;SDS011;69984;-43.570;172.580;2024-03-22T00:39:05;17.83;;;2.30;;
68854;SDS011;69984;-43.570;172.580;2024-03-22T00:41:33;13.38;;;2.35;;
68854;SDS011;69984;-43.570;172.580;2024-03-22T00:44:02;10.57;;;2.10;;
68854;SDS011;69984;-43.570;172.580;2024-03-22T00:46:29;10.13;;;1.80;;
68854;SDS011;69984;-43.570;172.580;2024-03-22T00:48:57;13.88;;;2.25;;
68854;SDS011;69984;-43.570;172.580;2024-03-22T00:51:25;15.02;;;1.85;;
68854;SDS011;69984;-43.570;172.580;2024-03-22T00:53:52;16.17;;;1.70;;
68854;SDS011;69984;-43.570;172.580;2024-03-22T00:56:20;9.27;;;2.00;;
68854;SDS011;69984;-43.570;172.580;2024-03-22T00:58:46;20.58;;;2.17;;
68854;SDS011;69984;-43.570;172.580;2024-03-22T01:01:13;7.22;;;1.70;;
68854;SDS011;69984;-43.570;172.580;2024-03-22T01:03:40;19.50;;;2.45;;
68854;SDS011;69984;-43.570;172.580;2024-03-22T01:06:07;10.63;;;1.73;;
68854;SDS011;69984;-43.570;172.580;2024-03-22T01:08:34;11.00;;;1.90;;
68854;SDS011;69984;-43.570;172.580;2024-03-22T01:11:01;13.95;;;2.05;;
68854;SDS011;69984;-43.570;172.580;2024-03-22T01:13:28;11.70;;;1.55;;
68854;SDS011;69984;-43.570;172.580;2024-03-22T01:15:55;10.27;;;2.13;;
68854;SDS011;69984;-43.570;172.580;2024-03-22T01:18:22;14.35;;;2.40;;
68854;SDS011;69984;-43.570;172.580;2024-03-22T01:20:49;16.80;;;2.58;;
68854;SDS011;69984;-43.570;172.580;2024-03-22T01:23:16;22.60;;;4.18;;
68854;SDS011;69984;-43.570;172.580;2024-03-22T01:25:46;21.80;;;5.78;;
68854;SDS011;69984;-43.570;172.580;2024-03-22T01:28:13;26.58;;;5.05;;
68854;SDS011;69984;-43.570;172.580;2024-03-22T01:30:42;14.18;;;4.07;;
68854;SDS011;69984;-43.570;172.580;2024-03-22T01:33:09;18.13;;;3.17;;
68854;SDS011;69984;-43.570;172.580;2024-03-22T01:35:36;10.48;;;2.40;;
68854;SDS011;69984;-43.570;172.580;2024-03-22T01:38:03;16.38;;;2.65;;
68854;SDS011;69984;-43.570;172.580;2024-03-22T01:40:30;8.93;;;3.00;;
68854;SDS011;69984;-43.570;172.580;2024-03-22T01:42:57;8.00;;;2.90;;
68854;SDS011;69984;-43.570;172.580;2024-03-22T01:45:24;10.88;;;5.18;;
68854;SDS011;69984;-43.570;172.580;2024-03-22T01:47:51;24.73;;;9.73;;
68854;SDS011;69984;-43.570;172.580;2024-03-22T01:50:23;30.30;;;12.40;;
68854;SDS011;69984;-43.570;172.580;2024-03-22T01:52:50;32.88;;;14.55;;
68854;SDS011;69984;-43.570;172.580;2024-03-22T01:55:18;34.70;;;13.93;;
68854;SDS011;69984;-43.570;172.580;2024-03-22T01:57:45;33.00;;;10.40;;
68854;SDS011;69984;-43.570;172.580;2024-03-22T02:00:12;10.02;;;4.00;;
68854;SDS011;69984;-43.570;172.580;2024-03-22T02:02:39;13.15;;;4.22;;
68854;SDS011;69984;-43.570;172.580;2024-03-22T02:05:16;9.07;;;2.38;;
68854;SDS011;69984;-43.570;172.580;2024-03-22T02:07:47;11.13;;;2.20;;
68854;SDS011;69984;-43.570;172.580;2024-03-22T02:10:14;11.18;;;1.52;;
68854;SDS011;69984;-43.570;172.580;2024-03-22T02:12:41;12.68;;;1.70;;
68854;SDS011;69984;-43.570;172.580;2024-03-22T02:15:09;14.00;;;2.50;;
68854;SDS011;69984;-43.570;172.580;2024-03-22T02:17:36;16.25;;;2.40;;
68854;SDS011;69984;-43.570;172.580;2024-03-22T02:20:02;8.93;;;3.22;;
68854;SDS011;69984;-43.570;172.580;2024-03-22T02:22:33;17.33;;;2.95;;
68854;SDS011;69984;-43.570;172.580;2024-03-22T02:25:00;11.88;;;3.15;;
68854;SDS011;69984;-43.570;172.580;2024-03-22T02:27:27;17.20;;;4.55;;
68854;SDS011;69984;-43.570;172.580;2024-03-22T02:29:54;11.32;;;3.13;;
68854;SDS011;69984;-43.570;172.580;2024-03-22T02:32:25;11.48;;;2.80;;
68854;SDS011;69984;-43.570;172.580;2024-03-22T02:34:51;12.85;;;2.40;;
68854;SDS011;69984;-43.570;172.580;2024-03-22T02:37:18;14.65;;;2.80;;
68854;SDS011;69984;-43.570;172.580;2024-03-22T02:39:45;14.27;;;2.75;;
68854;SDS011;69984;-43.570;172.580;2024-03-22T02:42:12;6.57;;;1.48;;
68854;SDS011;69984;-43.570;172.580;2024-03-22T02:44:39;14.35;;;3.33;;
68854;SDS011;69984;-43.570;172.580;2024-03-22T02:47:09;11.52;;;1.90;;
68854;SDS011;69984;-43.570;172.580;2024-03-22T02:49:37;8.95;;;3.05;;
68854;SDS011;69984;-43.570;172.580;2024-03-22T02:52:05;12.07;;;2.60;;
68854;SDS011;69984;-43.570;172.580;2024-03-22T02:54:32;18.90;;;8.48;;
68854;SDS011;69984;-43.570;172.580;2024-03-22T02:56:59;13.85;;;3.72;;
68854;SDS011;69984;-43.570;172.580;2024-03-22T02:59:27;13.45;;;2.88;;
68854;SDS011;69984;-43.570;172.580;2024-03-22T03:01:55;16.88;;;2.08;;
68854;SDS011;69984;-43.570;172.580;2024-03-22T03:04:21;11.32;;;1.73;;
68854;SDS011;69984;-43.570;172.580;2024-03-22T03:06:48;13.32;;;1.55;;
68854;SDS011;69984;-43.570;172.580;2024-03-22T03:09:15;11.50;;;1.63;;
68854;SDS011;69984;-43.570;172.580;2024-03-22T03:11:42;13.68;;;1.65;;
68854;SDS011;69984;-43.570;172.580;2024-03-22T03:14:09;9.25;;;1.85;;
68854;SDS011;69984;-43.570;172.580;2024-03-22T03:16:36;10.82;;;2.40;;
68854;SDS011;69984;-43.570;172.580;2024-03-22T03:19:03;27.38;;;3.38;;
68854;SDS011;69984;-43.570;172.580;2024-03-22T03:21:30;8.80;;;2.22;;
68854;SDS011;69984;-43.570;172.580;2024-03-22T03:23:58;11.80;;;1.73;;
68854;SDS011;69984;-43.570;172.580;2024-03-22T03:26:25;12.52;;;2.50;;
68854;SDS011;69984;-43.570;172.580;2024-03-22T03:28:52;19.77;;;1.77;;
68854;SDS011;69984;-43.570;172.580;2024-03-22T03:31:21;16.33;;;2.08;;
68854;SDS011;69984;-43.570;172.580;2024-03-22T03:33:48;16.48;;;1.52;;
68854;SDS011;69984;-43.570;172.580;2024-03-22T03:36:15;13.00;;;1.60;;
68854;SDS011;69984;-43.570;172.580;2024-03-22T03:38:43;8.88;;;1.40;;
68854;SDS011;69984;-43.570;172.580;2024-03-22T03:41:11;7.80;;;1.60;;
68854;SDS011;69984;-43.570;172.580;2024-03-22T03:43:38;11.65;;;2.15;;
68854;SDS011;69984;-43.570;172.580;2024-03-22T03:46:04;14.73;;;1.83;;
68854;SDS011;69984;-43.570;172.580;2024-03-22T03:48:31;11.05;;;1.65;;
68854;SDS011;69984;-43.570;172.580;2024-03-22T03:50:58;9.48;;;1.80;;
68854;SDS011;69984;-43.570;172.580;2024-03-22T03:53:29;9.98;;;1.83;;
68854;SDS011;69984;-43.570;172.580;2024-03-22T03:55:56;12.98;;;2.55;;
68854;SDS011;69984;-43.570;172.580;2024-03-22T03:58:23;12.57;;;1.65;;
68854;SDS011;69984;-43.570;172.580;2024-03-22T04:00:50;14.85;;;2.08;;
68854;SDS011;69984;-43.570;172.580;2024-03-22T04:03:17;14.68;;;3.00;;
68854;SDS011;69984;-43.570;172.580;2024-03-22T04:05:44;13.93;;;2.80;;
68854;SDS011;69984;-43.570;172.580;2024-03-22T04:08:11;15.27;;;4.50;;
68854;SDS011;69984;-43.570;172.580;2024-03-22T04:10:38;21.15;;;4.28;;
68854;SDS011;69984;-43.570;172.580;2024-03-22T04:13:05;16.98;;;4.45;;
68854;SDS011;69984;-43.570;172.580;2024-03-22T04:15:35;14.32;;;4.28;;
68854;SDS011;69984;-43.570;172.580;2024-03-22T04:18:01;12.52;;;4.07;;
68854;SDS011;69984;-43.570;172.580;2024-03-22T04:20:28;12.23;;;2.58;;
68854;SDS011;69984;-43.570;172.580;2024-03-22T04:22:55;10.27;;;2.38;;
68854;SDS011;69984;-43.570;172.580;2024-03-22T04:25:22;11.23;;;2.05;;
68854;SDS011;69984;-43.570;172.580;2024-03-22T04:27:49;18.75;;;1.80;;
68854;SDS011;69984;-43.570;172.580;2024-03-22T04:30:16;17.20;;;1.60;;
68854;SDS011;69984;-43.570;172.580;2024-03-22T04:32:45;13.35;;;2.13;;
68854;SDS011;69984;-43.570;172.580;2024-03-22T04:35:12;12.23;;;2.35;;
68854;SDS011;69984;-43.570;172.580;2024-03-22T04:37:40;13.27;;;1.92;;
68854;SDS011;69984;-43.570;172.580;2024-03-22T04:40:07;9.00;;;1.45;;
68854;SDS011;69984;-43.570;172.580;2024-03-22T04:42:35;8.07;;;1.10;;
68854;SDS011;69984;-43.570;172.580;2024-03-22T04:45:02;13.38;;;1.67;;
68854;SDS011;69984;-43.570;172.580;2024-03-22T04:47:29;9.32;;;1.50;;
68854;SDS011;69984;-43.570;172.580;2024-03-22T04:49:56;8.48;;;1.25;;
68854;SDS011;69984;-43.570;172.580;2024-03-22T04:52:23;8.15;;;1.67;;
68854;SDS011;69984;-43.570;172.580;2024-03-22T04:54:50;15.30;;;2.50;;
68854;SDS011;69984;-43.570;172.580;2024-03-22T04:57:16;12.70;;;2.75;;
68854;SDS011;69984;-43.570;172.580;2024-03-22T04:59:43;16.30;;;3.55;;
68854;SDS011;69984;-43.570;172.580;2024-03-22T05:02:10;10.65;;;2.58;;
68854;SDS011;69984;-43.570;172.580;2024-03-22T05:04:37;13.93;;;2.40;;
68854;SDS011;69984;-43.570;172.580;2024-03-22T05:07:04;9.07;;;1.98;;
68854;SDS011;69984;-43.570;172.580;2024-03-22T05:09:31;12.90;;;2.08;;
68854;SDS011;69984;-43.570;172.580;2024-03-22T05:11:58;19.52;;;2.65;;
68854;SDS011;69984;-43.570;172.580;2024-03-22T05:14:25;8.73;;;1.60;;
68854;SDS011;69984;-43.570;172.580;2024-03-22T05:16:52;9.65;;;1.92;;
68854;SDS011;69984;-43.570;172.580;2024-03-22T05:19:19;8.30;;;1.92;;
68854;SDS011;69984;-43.570;172.580;2024-03-22T05:21:46;6.13;;;1.77;;
68854;SDS011;69984;-43.570;172.580;2024-03-22T05:24:13;9.48;;;2.05;;
68854;SDS011;69984;-43.570;172.580;2024-03-22T05:26:40;12.30;;;2.20;;
68854;SDS011;69984;-43.570;172.580;2024-03-22T05:29:07;16.92;;;1.63;;
68854;SDS011;69984;-43.570;172.580;2024-03-22T05:31:35;9.68;;;1.92;;
68854;SDS011;69984;-43.570;172.580;2024-03-22T05:34:14;9.57;;;2.08;;
68854;SDS011;69984;-43.570;172.580;2024-03-22T05:36:41;10.02;;;2.00;;
68854;SDS011;69984;-43.570;172.580;2024-03-22T05:39:08;10.82;;;1.55;;
68854;SDS011;69984;-43.570;172.580;2024-03-22T05:41:38;12.32;;;2.20;;
68854;SDS011;69984;-43.570;172.580;2024-03-22T05:44:05;20.35;;;2.00;;
68854;SDS011;69984;-43.570;172.580;2024-03-22T05:46:32;13.20;;;2.80;;
68854;SDS011;69984;-43.570;172.580;2024-03-22T05:48:59;17.33;;;3.97;;
68854;SDS011;69984;-43.570;172.580;2024-03-22T05:51:26;12.25;;;6.07;;
68854;SDS011;69984;-43.570;172.580;2024-03-22T05:53:53;17.23;;;5.88;;
68854;SDS011;69984;-43.570;172.580;2024-03-22T05:56:20;27.55;;;9.20;;
68854;SDS011;69984;-43.570;172.580;2024-03-22T05:58:47;21.17;;;7.70;;
68854;SDS011;69984;-43.570;172.580;2024-03-22T06:01:14;24.48;;;10.57;;
68854;SDS011;69984;-43.570;172.580;2024-03-22T06:03:41;25.10;;;9.82;;
68854;SDS011;69984;-43.570;172.580;2024-03-22T06:06:08;26.98;;;8.50;;
68854;SDS011;69984;-43.570;172.580;2024-03-22T06:08:35;20.40;;;5.93;;
68854;SDS011;69984;-43.570;172.580;2024-03-22T06:11:05;13.68;;;4.68;;
68854;SDS011;69984;-43.570;172.580;2024-03-22T06:13:33;15.65;;;3.42;;
68854;SDS011;69984;-43.570;172.580;2024-03-22T06:16:02;14.95;;;3.30;;
68854;SDS011;69984;-43.570;172.580;2024-03-22T06:18:29;22.60;;;3.08;;
68854;SDS011;69984;-43.570;172.580;2024-03-22T06:20:56;20.42;;;3.67;;
68854;SDS011;69984;-43.570;172.580;2024-03-22T06:23:23;11.48;;;3.05;;
68854;SDS011;69984;-43.570;172.580;2024-03-22T06:25:56;10.65;;;2.75;;
68854;SDS011;69984;-43.570;172.580;2024-03-22T06:28:23;14.32;;;2.80;;
68854;SDS011;69984;-43.570;172.580;2024-03-22T06:30:50;12.52;;;2.38;;
68854;SDS011;69984;-43.570;172.580;2024-03-22T06:33:17;13.25;;;2.60;;
68854;SDS011;69984;-43.570;172.580;2024-03-22T06:35:45;11.15;;;2.63;;
68854;SDS011;69984;-43.570;172.580;2024-03-22T06:38:12;10.38;;;2.92;;
68854;SDS011;69984;-43.570;172.580;2024-03-22T06:40:39;13.10;;;2.97;;
68854;SDS011;69984;-43.570;172.580;2024-03-22T06:43:06;18.73;;;2.80;;
68854;SDS011;69984;-43.570;172.580;2024-03-22T06:45:34;11.77;;;2.35;;
68854;SDS011;69984;-43.570;172.580;2024-03-22T06:48:01;12.30;;;2.35;;
68854;SDS011;69984;-43.570;172.580;2024-03-22T06:50:28;7.07;;;2.03;;
68854;SDS011;69984;-43.570;172.580;2024-03-22T06:52:55;8.45;;;2.72;;
68854;SDS011;69984;-43.570;172.580;2024-03-22T06:55:22;10.48;;;2.50;;
68854;SDS011;69984;-43.570;172.580;2024-03-22T06:57:49;9.45;;;1.90;;
68854;SDS011;69984;-43.570;172.580;2024-03-22T07:00:18;11.48;;;2.83;;
68854;SDS011;69984;-43.570;172.580;2024-03-22T07:02:46;12.18;;;2.08;;
68854;SDS011;69984;-43.570;172.580;2024-03-22T07:05:13;13.07;;;1.92;;
68854;SDS011;69984;-43.570;172.580;2024-03-22T07:07:40;18.58;;;3.10;;
68854;SDS011;69984;-43.570;172.580;2024-03-22T07:10:07;21.25;;;1.67;;
68854;SDS011;69984;-43.570;172.580;2024-03-22T07:12:35;15.77;;;1.90;;
68854;SDS011;69984;-43.570;172.580;2024-03-22T07:15:02;11.02;;;2.08;;
68854;SDS011;69984;-43.570;172.580;2024-03-22T07:17:29;13.75;;;2.20;;
68854;SDS011;69984;-43.570;172.580;2024-03-22T07:19:57;13.00;;;1.52;;
68854;SDS011;69984;-43.570;172.580;2024-03-22T07:22:24;13.65;;;2.00;;
68854;SDS011;69984;-43.570;172.580;2024-03-22T07:24:51;7.65;;;1.77;;
68854;SDS011;69984;-43.570;172.580;2024-03-22T07:27:18;17.35;;;2.75;;
68854;SDS011;69984;-43.570;172.580;2024-03-22T07:29:45;18.23;;;1.70;;
68854;SDS011;69984;-43.570;172.580;2024-03-22T07:32:12;18.10;;;1.83;;
68854;SDS011;69984;-43.570;172.580;2024-03-22T07:34:39;20.02;;;2.40;;
68854;SDS011;69984;-43.570;172.580;2024-03-22T07:37:09;11.73;;;1.60;;
68854;SDS011;69984;-43.570;172.580;2024-03-22T07:39:36;15.00;;;1.88;;
68854;SDS011;69984;-43.570;172.580;2024-03-22T07:42:03;17.25;;;1.98;;
68854;SDS011;69984;-43.570;172.580;2024-03-22T07:44:30;11.30;;;1.70;;
68854;SDS011;69984;-43.570;172.580;2024-03-22T07:46:57;13.88;;;1.55;;
68854;SDS011;69984;-43.570;172.580;2024-03-22T07:49:24;8.73;;;1.38;;
68854;SDS011;69984;-43.570;172.580;2024-03-22T07:51:51;7.85;;;1.92;;
68854;SDS011;69984;-43.570;172.580;2024-03-22T07:54:18;10.50;;;1.52;;
68854;SDS011;69984;-43.570;172.580;2024-03-22T07:56:46;12.13;;;2.03;;
68854;SDS011;69984;-43.570;172.580;2024-03-22T07:59:13;6.95;;;1.23;;
68854;SDS011;69984;-43.570;172.580;2024-03-22T08:01:41;13.90;;;1.52;;
68854;SDS011;69984;-43.570;172.580;2024-03-22T08:04:08;10.70;;;1.38;;
68854;SDS011;69984;-43.570;172.580;2024-03-22T08:06:35;15.32;;;2.03;;
68854;SDS011;69984;-43.570;172.580;2024-03-22T08:09:02;11.57;;;1.33;;
68854;SDS011;69984;-43.570;172.580;2024-03-22T08:11:29;12.13;;;1.80;;
68854;SDS011;69984;-43.570;172.580;2024-03-22T08:13:56;7.53;;;1.48;;
68854;SDS011;69984;-43.570;172.580;2024-03-22T08:16:27;13.85;;;1.50;;
68854;SDS011;69984;-43.570;172.580;2024-03-22T08:18:57;11.93;;;1.65;;
68854;SDS011;69984;-43.570;172.580;2024-03-22T08:21:24;11.05;;;1.45;;
68854;SDS011;69984;-43.570;172.580;2024-03-22T08:23:51;8.57;;;1.33;;
68854;SDS011;69984;-43.570;172.580;2024-03-22T08:26:18;11.55;;;1.85;;
68854;SDS011;69984;-43.570;172.580;2024-03-22T08:28:46;20.27;;;1.85;;
68854;SDS011;69984;-43.570;172.580;2024-03-22T08:31:14;5.65;;;1.20;;
68854;SDS011;69984;-43.570;172.580;2024-03-22T08:33:42;8.32;;;0.90;;
68854;SDS011;69984;-43.570;172.580;2024-03-22T08:36:09;14.60;;;1.48;;
68854;SDS011;69984;-43.570;172.580;2024-03-22T08:38:36;14.73;;;1.38;;
68854;SDS011;69984;-43.570;172.580;2024-03-22T08:41:03;11.52;;;1.58;;
68854;SDS011;69984;-43.570;172.580;2024-03-22T08:43:30;10.25;;;1.30;;
68854;SDS011;69984;-43.570;172.580;2024-03-22T08:45:57;7.32;;;0.85;;
68854;SDS011;69984;-43.570;172.580;2024-03-22T08:48:24;4.38;;;1.13;;
68854;SDS011;69984;-43.570;172.580;2024-03-22T08:50:50;7.20;;;1.88;;
68854;SDS011;69984;-43.570;172.580;2024-03-22T08:53:17;11.38;;;1.00;;
68854;SDS011;69984;-43.570;172.580;2024-03-22T08:55:47;8.55;;;1.38;;
68854;SDS011;69984;-43.570;172.580;2024-03-22T08:58:15;10.48;;;1.88;;
68854;SDS011;69984;-43.570;172.580;2024-03-22T09:00:43;12.38;;;1.73;;
68854;SDS011;69984;-43.570;172.580;2024-03-22T09:03:10;8.48;;;1.67;;
68854;SDS011;69984;-43.570;172.580;2024-03-22T09:05:37;17.02;;;1.35;;
68854;SDS011;69984;-43.570;172.580;2024-03-22T09:08:04;11.23;;;1.55;;
68854;SDS011;69984;-43.570;172.580;2024-03-22T09:10:31;10.55;;;1.52;;
68854;SDS011;69984;-43.570;172.580;2024-03-22T09:12:59;6.03;;;1.52;;
68854;SDS011;69984;-43.570;172.580;2024-03-22T09:15:26;10.77;;;2.20;;
68854;SDS011;69984;-43.570;172.580;2024-03-22T09:17:53;10.27;;;1.73;;
68854;SDS011;69984;-43.570;172.580;2024-03-22T09:20:21;9.85;;;1.73;;
68854;SDS011;69984;-43.570;172.580;2024-03-22T09:22:48;14.18;;;1.73;;
68854;SDS011;69984;-43.570;172.580;2024-03-22T09:25:15;15.05;;;1.77;;
68854;SDS011;69984;-43.570;172.580;2024-03-22T09:27:42;8.43;;;1.10;;
68854;SDS011;69984;-43.570;172.580;2024-03-22T09:30:09;11.10;;;1.63;;
68854;SDS011;69984;-43.570;172.580;2024-03-22T09:32:36;10.38;;;1.35;;
68854;SDS011;69984;-43.570;172.580;2024-03-22T09:35:04;11.52;;;1.85;;
68854;SDS011;69984;-43.570;172.580;2024-03-22T09:37:31;8.05;;;1.83;;
68854;SDS011;69984;-43.570;172.580;2024-03-22T09:39:58;15.75;;;2.83;;
68854;SDS011;69984;-43.570;172.580;2024-03-22T09:42:25;10.90;;;1.60;;
68854;SDS011;69984;-43.570;172.580;2024-03-22T09:44:54;12.32;;;1.30;;
68854;SDS011;69984;-43.570;172.580;2024-03-22T09:47:21;11.80;;;1.48;;
68854;SDS011;69984;-43.570;172.580;2024-03-22T09:49:50;6.35;;;1.35;;
68854;SDS011;69984;-43.570;172.580;2024-03-22T09:52:18;12.07;;;1.80;;
68854;SDS011;69984;-43.570;172.580;2024-03-22T09:54:46;13.70;;;1.58;;
68854;SDS011;69984;-43.570;172.580;2024-03-22T09:57:14;11.15;;;1.95;;
68854;SDS011;69984;-43.570;172.580;2024-03-22T09:59:41;12.15;;;1.92;;
68854;SDS011;69984;-43.570;172.580;2024-03-22T10:04:42;18.35;;;2.05;;
68854;SDS011;69984;-43.570;172.580;2024-03-22T10:07:09;17.55;;;1.65;;
68854;SDS011;69984;-43.570;172.580;2024-03-22T10:09:37;15.75;;;2.00;;
68854;SDS011;69984;-43.570;172.580;2024-03-22T10:12:04;15.55;;;2.05;;
68854;SDS011;69984;-43.570;172.580;2024-03-22T10:14:31;16.30;;;2.30;;
68854;SDS011;69984;-43.570;172.580;2024-03-22T10:16:59;22.45;;;3.17;;
68854;SDS011;69984;-43.570;172.580;2024-03-22T10:19:26;14.65;;;2.17;;
68854;SDS011;69984;-43.570;172.580;2024-03-22T10:22:26;18.17;;;1.75;;
68854;SDS011;69984;-43.570;172.580;2024-03-22T10:24:46;18.17;;;2.53;;
68854;SDS011;69984;-43.570;172.580;2024-03-22T10:27:13;16.20;;;2.30;;
68854;SDS011;69984;-43.570;172.580;2024-03-22T10:29:40;10.70;;;1.40;;
68854;SDS011;69984;-43.570;172.580;2024-03-22T10:32:08;14.23;;;2.30;;
68854;SDS011;69984;-43.570;172.580;2024-03-22T10:34:36;11.90;;;1.55;;
68854;SDS011;69984;-43.570;172.580;2024-03-22T10:37:05;21.23;;;2.55;;
68854;SDS011;69984;-43.570;172.580;2024-03-22T10:39:34;10.73;;;1.58;;
68854;SDS011;69984;-43.570;172.580;2024-03-22T10:42:03;11.48;;;1.50;;
68854;SDS011;69984;-43.570;172.580;2024-03-22T10:44:30;11.45;;;1.98;;
68854;SDS011;69984;-43.570;172.580;2024-03-22T10:46:57;12.70;;;1.77;;
68854;SDS011;69984;-43.570;172.580;2024-03-22T10:49:27;9.45;;;1.30;;
68854;SDS011;69984;-43.570;172.580;2024-03-22T10:51:57;6.55;;;1.23;;
68854;SDS011;69984;-43.570;172.580;2024-03-22T10:54:31;15.35;;;1.80;;
68854;SDS011;69984;-43.570;172.580;2024-03-22T10:57:02;11.65;;;1.38;;
68854;SDS011;69984;-43.570;172.580;2024-03-22T10:59:34;19.60;;;1.75;;
68854;SDS011;69984;-43.570;172.580;2024-03-22T11:02:03;11.93;;;1.60;;
68854;SDS011;69984;-43.570;172.580;2024-03-22T11:04:32;10.82;;;1.73;;
68854;SDS011;69984;-43.570;172.580;2024-03-22T11:07:00;15.18;;;2.22;;
68854;SDS011;69984;-43.570;172.580;2024-03-22T11:09:29;12.93;;;2.08;;
68854;SDS011;69984;-43.570;172.580;2024-03-22T11:11:56;12.13;;;2.35;;
68854;SDS011;69984;-43.570;172.580;2024-03-22T11:14:24;10.77;;;1.83;;
68854;SDS011;69984;-43.570;172.580;2024-03-22T11:16:52;11.82;;;1.65;;
68854;SDS011;69984;-43.570;172.580;2024-03-22T11:19:18;6.63;;;1.70;;
68854;SDS011;69984;-43.570;172.580;2024-03-22T11:21:46;9.50;;;1.75;;
68854;SDS011;69984;-43.570;172.580;2024-03-22T11:24:12;7.57;;;1.10;;
68854;SDS011;69984;-43.570;172.580;2024-03-22T11:26:39;8.20;;;1.10;;
68854;SDS011;69984;-43.570;172.580;2024-03-22T11:29:06;14.48;;;1.40;;
68854;SDS011;69984;-43.570;172.580;2024-03-22T11:31:35;14.20;;;1.55;;
68854;SDS011;69984;-43.570;172.580;2024-03-22T11:34:02;6.80;;;1.40;;
68854;SDS011;69984;-43.570;172.580;2024-03-22T11:36:29;10.57;;;1.05;;
68854;SDS011;69984;-43.570;172.580;2024-03-22T11:38:56;14.90;;;1.52;;
68854;SDS011;69984;-43.570;172.580;2024-03-22T11:41:25;6.75;;;1.13;;
68854;SDS011;69984;-43.570;172.580;2024-03-22T11:43:54;12.43;;;1.63;;
68854;SDS011;69984;-43.570;172.580;2024-03-22T11:46:23;8.98;;;1.20;;
68854;SDS011;69984;-43.570;172.580;2024-03-22T11:48:55;7.47;;;1.65;;
68854;SDS011;69984;-43.570;172.580;2024-03-22T11:51:23;12.25;;;1.73;;
68854;SDS011;69984;-43.570;172.580;2024-03-22T11:53:53;9.57;;;1.55;;
68854;SDS011;69984;-43.570;172.580;2024-03-22T11:56:21;6.25;;;1.00;;
68854;SDS011;69984;-43.570;172.580;2024-03-22T11:58:57;9.75;;;0.93;;
68854;SDS011;69984;-43.570;172.580;2024-03-22T12:01:26;6.82;;;1.08;;
68854;SDS011;69984;-43.570;172.580;2024-03-22T12:03:53;17.23;;;1.70;;
68854;SDS011;69984;-43.570;172.580;2024-03-22T12:06:20;3.17;;;0.52;;
68854;SDS011;69984;-43.570;172.580;2024-03-22T12:08:47;13.43;;;1.17;;
68854;SDS011;69984;-43.570;172.580;2024-03-22T12:11:14;8.18;;;1.10;;
68854;SDS011;69984;-43.570;172.580;2024-03-22T12:13:41;9.48;;;1.17;;
68854;SDS011;69984;-43.570;172.580;2024-03-22T12:16:08;6.90;;;0.88;;
68854;SDS011;69984;-43.570;172.580;2024-03-22T12:18:35;12.95;;;1.45;;
68854;SDS011;69984;-43.570;172.580;2024-03-22T12:21:02;10.00;;;1.25;;
68854;SDS011;69984;-43.570;172.580;2024-03-22T12:23:32;8.13;;;1.20;;
68854;SDS011;69984;-43.570;172.580;2024-03-22T12:25:59;8.20;;;1.27;;
68854;SDS011;69984;-43.570;172.580;2024-03-22T12:28:26;4.55;;;0.65;;
68854;SDS011;69984;-43.570;172.580;2024-03-22T12:30:53;5.78;;;1.20;;
68854;SDS011;69984;-43.570;172.580;2024-03-22T12:33:20;5.05;;;1.10;;
68854;SDS011;69984;-43.570;172.580;2024-03-22T12:35:47;7.53;;;1.42;;
68854;SDS011;69984;-43.570;172.580;2024-03-22T12:38:14;5.80;;;0.77;;
68854;SDS011;69984;-43.570;172.580;2024-03-22T12:40:41;3.15;;;0.75;;
68854;SDS011;69984;-43.570;172.580;2024-03-22T12:43:09;5.05;;;1.05;;
68854;SDS011;69984;-43.570;172.580;2024-03-22T12:45:37;7.85;;;0.80;;
68854;SDS011;69984;-43.570;172.580;2024-03-22T12:48:04;5.50;;;1.33;;
68854;SDS011;69984;-43.570;172.580;2024-03-22T12:50:31;7.80;;;1.25;;
68854;SDS011;69984;-43.570;172.580;2024-03-22T12:52:59;6.40;;;1.05;;
68854;SDS011;69984;-43.570;172.580;2024-03-22T12:55:26;8.10;;;0.73;;
68854;SDS011;69984;-43.570;172.580;2024-03-22T12:57:54;6.68;;;0.77;;
68854;SDS011;69984;-43.570;172.580;2024-03-22T13:00:21;3.90;;;1.25;;
68854;SDS011;69984;-43.570;172.580;2024-03-22T13:02:48;5.35;;;1.20;;
68854;SDS011;69984;-43.570;172.580;2024-03-22T13:05:15;9.88;;;1.08;;
68854;SDS011;69984;-43.570;172.580;2024-03-22T13:07:42;11.48;;;1.33;;
68854;SDS011;69984;-43.570;172.580;2024-03-22T13:10:09;4.00;;;1.08;;
68854;SDS011;69984;-43.570;172.580;2024-03-22T13:12:36;9.32;;;1.17;;
68854;SDS011;69984;-43.570;172.580;2024-03-22T13:15:03;8.18;;;1.42;;
68854;SDS011;69984;-43.570;172.580;2024-03-22T13:17:31;3.78;;;1.00;;
68854;SDS011;69984;-43.570;172.580;2024-03-22T13:19:58;5.68;;;0.98;;
68854;SDS011;69984;-43.570;172.580;2024-03-22T13:22:25;12.30;;;1.10;;
68854;SDS011;69984;-43.570;172.580;2024-03-22T13:24:52;6.43;;;0.95;;
68854;SDS011;69984;-43.570;172.580;2024-03-22T13:27:20;4.50;;;0.95;;
68854;SDS011;69984;-43.570;172.580;2024-03-22T13:29:48;7.40;;;0.93;;
68854;SDS011;69984;-43.570;172.580;2024-03-22T13:32:17;7.82;;;1.33;;
68854;SDS011;69984;-43.570;172.580;2024-03-22T13:34:45;8.27;;;0.80;;
68854;SDS011;69984;-43.570;172.580;2024-03-22T13:37:12;14.52;;;0.90;;
68854;SDS011;69984;-43.570;172.580;2024-03-22T13:39:39;5.35;;;1.10;;
68854;SDS011;69984;-43.570;172.580;2024-03-22T13:42:06;6.47;;;1.35;;
68854;SDS011;69984;-43.570;172.580;2024-03-22T13:44:34;6.97;;;1.33;;
68854;SDS011;69984;-43.570;172.580;2024-03-22T13:47:01;7.47;;;1.10;;
68854;SDS011;69984;-43.570;172.580;2024-03-22T13:49:30;6.13;;;1.25;;
68854;SDS011;69984;-43.570;172.580;2024-03-22T13:51:57;4.05;;;0.80;;
68854;SDS011;69984;-43.570;172.580;2024-03-22T13:54:25;6.97;;;1.08;;
68854;SDS011;69984;-43.570;172.580;2024-03-22T13:56:52;7.15;;;0.95;;
68854;SDS011;69984;-43.570;172.580;2024-03-22T13:59:19;7.65;;;1.05;;
68854;SDS011;69984;-43.570;172.580;2024-03-22T14:01:45;5.03;;;0.63;;
68854;SDS011;69984;-43.570;172.580;2024-03-22T14:04:13;6.43;;;1.15;;
68854;SDS011;69984;-43.570;172.580;2024-03-22T14:06:41;4.90;;;0.95;;